sensor_id;sensor_type;location;lat;lon;timestamp;temperature;humidity
45715;DHT22;31430;61.646;24.704;2023-02-28T00:02:21;1.50;99.90
45715;DHT22;31430;61.646;24.704;2023-02-28T00:04:47;1.50;99.90
45715;DHT22;31430;61.646;24.704;2023-02-28T00:07:18;1.50;99.90
45715;DHT22;31430;61.646;24.704;2023-02-28T00:09:44;1.50;99.90
45715;DHT22;31430;61.646;24.704;2023-02-28T00:12:10;1.50;99.90
45715;DHT22;31430;61.646;24.704;2023-02-28T00:14:36;1.40;99.90
45715;DHT22;31430;61.646;24.704;2023-02-28T00:17:01;1.50;99.90
45715;DHT22;31430;61.646;24.704;2023-02-28T00:19:27;1.60;99.90
45715;DHT22;31430;61.646;24.704;2023-02-28T00:21:53;1.80;99.90
45715;DHT22;31430;61.646;24.704;2023-02-28T00:24:18;1.80;99.90
45715;DHT22;31430;61.646;24.704;2023-02-28T00:26:44;1.70;99.90
45715;DHT22;31430;61.646;24.704;2023-02-28T00:29:10;1.80;99.90
45715;DHT22;31430;61.646;24.704;2023-02-28T00:31:35;1.70;99.90
45715;DHT22;31430;61.646;24.704;2023-02-28T00:34:01;1.80;99.90
45715;DHT22;31430;61.646;24.704;2023-02-28T00:36:26;1.70;99.90
45715;DHT22;31430;61.646;24.704;2023-02-28T00:38:52;1.60;99.90
45715;DHT22;31430;61.646;24.704;2023-02-28T00:41:18;1.60;99.90
45715;DHT22;31430;61.646;24.704;2023-02-28T00:43:43;1.50;99.90
45715;DHT22;31430;61.646;24.704;2023-02-28T00:46:09;1.40;99.90
45715;DHT22;31430;61.646;24.704;2023-02-28T00:48:35;1.40;99.90
45715;DHT22;31430;61.646;24.704;2023-02-28T00:51:01;1.40;99.90
45715;DHT22;31430;61.646;24.704;2023-02-28T00:53:27;1.40;99.90
45715;DHT22;31430;61.646;24.704;2023-02-28T00:55:53;1.30;99.90
45715;DHT22;31430;61.646;24.704;2023-02-28T00:58:19;1.40;99.90
45715;DHT22;31430;61.646;24.704;2023-02-28T01:00:45;1.50;99.90
45715;DHT22;31430;61.646;24.704;2023-02-28T01:03:17;1.40;99.90
45715;DHT22;31430;61.646;24.704;2023-02-28T01:05:44;1.40;99.90
45715;DHT22;31430;61.646;24.704;2023-02-28T01:08:10;1.40;99.90
45715;DHT22;31430;61.646;24.704;2023-02-28T01:10:35;1.30;99.90
45715;DHT22;31430;61.646;24.704;2023-02-28T01:13:02;1.30;99.90
45715;DHT22;31430;61.646;24.704;2023-02-28T01:15:28;1.20;99.90
45715;DHT22;31430;61.646;24.704;2023-02-28T01:17:54;1.10;99.90
45715;DHT22;31430;61.646;24.704;2023-02-28T01:20:19;1.00;99.90
45715;DHT22;31430;61.646;24.704;2023-02-28T01:22:45;0.90;99.90
45715;DHT22;31430;61.646;24.704;2023-02-28T01:25:12;1.00;99.90
45715;DHT22;31430;61.646;24.704;2023-02-28T01:27:37;1.50;99.90
45715;DHT22;31430;61.646;24.704;2023-02-28T01:30:06;1.60;99.90
45715;DHT22;31430;61.646;24.704;2023-02-28T01:32:32;1.70;99.90
45715;DHT22;31430;61.646;24.704;2023-02-28T01:34:57;1.80;99.90
45715;DHT22;31430;61.646;24.704;2023-02-28T01:37:23;1.60;99.90
45715;DHT22;31430;61.646;24.704;2023-02-28T01:39:49;1.80;99.90
45715;DHT22;31430;61.646;24.704;2023-02-28T01:42:14;1.70;99.90
45715;DHT22;31430;61.646;24.704;2023-02-28T01:47:29;1.80;99.90
45715;DHT22;31430;61.646;24.704;2023-02-28T01:49:55;1.70;99.90
45715;DHT22;31430;61.646;24.704;2023-02-28T01:52:22;1.60;99.90
45715;DHT22;31430;61.646;24.704;2023-02-28T01:54:52;1.50;99.90
45715;DHT22;31430;61.646;24.704;2023-02-28T01:57:24;1.70;99.90
45715;DHT22;31430;61.646;24.704;2023-02-28T02:00:04;1.70;99.90
45715;DHT22;31430;61.646;24.704;2023-02-28T02:02:32;1.70;99.90
45715;DHT22;31430;61.646;24.704;2023-02-28T02:05:08;1.80;99.90
45715;DHT22;31430;61.646;24.704;2023-02-28T02:07:36;1.90;99.90
45715;DHT22;31430;61.646;24.704;2023-02-28T02:10:35;2.00;99.90
45715;DHT22;31430;61.646;24.704;2023-02-28T02:15:53;2.10;99.90
45715;DHT22;31430;61.646;24.704;2023-02-28T02:35:27;2.40;99.90
45715;DHT22;31430;61.646;24.704;2023-02-28T02:40:57;2.40;99.90
45715;DHT22;31430;61.646;24.704;2023-02-28T02:43:31;2.40;99.90
45715;DHT22;31430;61.646;24.704;2023-02-28T02:46:06;2.30;99.90
45715;DHT22;31430;61.646;24.704;2023-02-28T02:48:34;2.20;99.90
45715;DHT22;31430;61.646;24.704;2023-02-28T02:51:06;2.20;99.90
45715;DHT22;31430;61.646;24.704;2023-02-28T02:53:46;2.10;99.90
45715;DHT22;31430;61.646;24.704;2023-02-28T02:56:16;2.10;99.90
45715;DHT22;31430;61.646;24.704;2023-02-28T02:58:44;2.00;99.90
45715;DHT22;31430;61.646;24.704;2023-02-28T03:01:18;1.90;99.90
45715;DHT22;31430;61.646;24.704;2023-02-28T03:03:58;1.80;99.90
45715;DHT22;31430;61.646;24.704;2023-02-28T03:06:25;1.90;99.90
45715;DHT22;31430;61.646;24.704;2023-02-28T03:08:51;1.90;99.90
45715;DHT22;31430;61.646;24.704;2023-02-28T03:11:18;2.00;99.90
45715;DHT22;31430;61.646;24.704;2023-02-28T03:27:42;2.00;99.90
45715;DHT22;31430;61.646;24.704;2023-02-28T03:33:34;2.00;99.90
45715;DHT22;31430;61.646;24.704;2023-02-28T03:36:16;2.00;99.90
45715;DHT22;31430;61.646;24.704;2023-02-28T03:38:53;2.10;99.90
45715;DHT22;31430;61.646;24.704;2023-02-28T03:41:43;2.10;99.90
45715;DHT22;31430;61.646;24.704;2023-02-28T03:44:23;2.00;99.90
45715;DHT22;31430;61.646;24.704;2023-02-28T03:47:08;2.00;99.90
45715;DHT22;31430;61.646;24.704;2023-02-28T03:55:34;2.10;99.90
45715;DHT22;31430;61.646;24.704;2023-02-28T04:00:52;2.00;99.90
45715;DHT22;31430;61.646;24.704;2023-02-28T04:03:20;2.00;99.90
45715;DHT22;31430;61.646;24.704;2023-02-28T04:05:50;2.00;99.90
45715;DHT22;31430;61.646;24.704;2023-02-28T04:08:17;1.90;99.90
45715;DHT22;31430;61.646;24.704;2023-02-28T04:10:46;2.00;99.90
45715;DHT22;31430;61.646;24.704;2023-02-28T04:13:13;1.90;99.90
45715;DHT22;31430;61.646;24.704;2023-02-28T04:15:39;1.90;99.90
45715;DHT22;31430;61.646;24.704;2023-02-28T04:18:05;1.80;99.90
45715;DHT22;31430;61.646;24.704;2023-02-28T04:20:31;1.80;99.90
45715;DHT22;31430;61.646;24.704;2023-02-28T04:22:56;1.80;99.90
45715;DHT22;31430;61.646;24.704;2023-02-28T04:25:22;1.80;99.90
45715;DHT22;31430;61.646;24.704;2023-02-28T04:27:48;1.80;99.90
45715;DHT22;31430;61.646;24.704;2023-02-28T04:30:13;1.80;99.90
45715;DHT22;31430;61.646;24.704;2023-02-28T04:32:39;1.80;99.90
45715;DHT22;31430;61.646;24.704;2023-02-28T04:35:05;1.80;99.90
45715;DHT22;31430;61.646;24.704;2023-02-28T04:37:31;1.80;99.90
45715;DHT22;31430;61.646;24.704;2023-02-28T04:40:00;1.80;99.90
45715;DHT22;31430;61.646;24.704;2023-02-28T04:42:26;1.70;99.90
45715;DHT22;31430;61.646;24.704;2023-02-28T04:44:52;1.70;99.90
45715;DHT22;31430;61.646;24.704;2023-02-28T04:47:18;1.70;99.90
45715;DHT22;31430;61.646;24.704;2023-02-28T04:49:43;1.70;99.90
45715;DHT22;31430;61.646;24.704;2023-02-28T04:52:09;1.70;99.90
45715;DHT22;31430;61.646;24.704;2023-02-28T04:54:35;1.60;99.90
45715;DHT22;31430;61.646;24.704;2023-02-28T04:57:04;1.60;99.90
45715;DHT22;31430;61.646;24.704;2023-02-28T04:59:29;1.50;99.90
45715;DHT22;31430;61.646;24.704;2023-02-28T05:01:55;1.60;99.90
45715;DHT22;31430;61.646;24.704;2023-02-28T05:04:21;1.50;99.90
45715;DHT22;31430;61.646;24.704;2023-02-28T05:06:46;1.50;99.90
45715;DHT22;31430;61.646;24.704;2023-02-28T05:09:12;1.60;99.90
45715;DHT22;31430;61.646;24.704;2023-02-28T05:11:38;1.50;99.90
45715;DHT22;31430;61.646;24.704;2023-02-28T05:14:10;1.60;99.90
45715;DHT22;31430;61.646;24.704;2023-02-28T05:16:36;1.60;99.90
45715;DHT22;31430;61.646;24.704;2023-02-28T05:19:02;1.60;99.90
45715;DHT22;31430;61.646;24.704;2023-02-28T05:23:59;1.60;99.90
45715;DHT22;31430;61.646;24.704;2023-02-28T05:26:26;1.70;99.90
45715;DHT22;31430;61.646;24.704;2023-02-28T05:28:52;1.60;99.90
45715;DHT22;31430;61.646;24.704;2023-02-28T05:31:17;1.70;99.90
45715;DHT22;31430;61.646;24.704;2023-02-28T05:33:43;1.60;99.90
45715;DHT22;31430;61.646;24.704;2023-02-28T05:36:09;1.70;99.90
45715;DHT22;31430;61.646;24.704;2023-02-28T05:38:34;1.60;99.90
45715;DHT22;31430;61.646;24.704;2023-02-28T05:41:04;1.60;99.90
45715;DHT22;31430;61.646;24.704;2023-02-28T05:43:30;1.60;99.90
45715;DHT22;31430;61.646;24.704;2023-02-28T05:45:56;1.60;99.90
45715;DHT22;31430;61.646;24.704;2023-02-28T05:48:21;1.50;99.90
45715;DHT22;31430;61.646;24.704;2023-02-28T05:50:47;1.50;99.90
45715;DHT22;31430;61.646;24.704;2023-02-28T05:53:13;1.50;99.90
45715;DHT22;31430;61.646;24.704;2023-02-28T05:55:38;1.50;99.90
45715;DHT22;31430;61.646;24.704;2023-02-28T05:58:06;1.50;99.90
45715;DHT22;31430;61.646;24.704;2023-02-28T06:00:32;1.50;99.90
45715;DHT22;31430;61.646;24.704;2023-02-28T06:02:57;1.50;99.90
45715;DHT22;31430;61.646;24.704;2023-02-28T06:05:27;1.50;99.40
45715;DHT22;31430;61.646;24.704;2023-02-28T06:07:53;1.50;96.10
45715;DHT22;31430;61.646;24.704;2023-02-28T06:10:19;1.50;99.20
45715;DHT22;31430;61.646;24.704;2023-02-28T06:12:45;1.40;89.90
45715;DHT22;31430;61.646;24.704;2023-02-28T06:15:14;1.40;91.60
45715;DHT22;31430;61.646;24.704;2023-02-28T06:17:41;1.30;89.40
45715;DHT22;31430;61.646;24.704;2023-02-28T06:20:08;1.40;89.90
45715;DHT22;31430;61.646;24.704;2023-02-28T06:22:35;1.30;85.70
45715;DHT22;31430;61.646;24.704;2023-02-28T06:25:01;1.30;84.80
45715;DHT22;31430;61.646;24.704;2023-02-28T06:27:27;1.30;82.90
45715;DHT22;31430;61.646;24.704;2023-02-28T06:29:55;1.30;83.60
45715;DHT22;31430;61.646;24.704;2023-02-28T06:32:21;1.30;84.40
45715;DHT22;31430;61.646;24.704;2023-02-28T06:34:47;1.20;85.10
45715;DHT22;31430;61.646;24.704;2023-02-28T06:37:13;1.30;82.00
45715;DHT22;31430;61.646;24.704;2023-02-28T06:39:39;1.20;83.60
45715;DHT22;31430;61.646;24.704;2023-02-28T06:42:05;1.20;86.70
45715;DHT22;31430;61.646;24.704;2023-02-28T06:44:30;1.10;87.20
45715;DHT22;31430;61.646;24.704;2023-02-28T06:47:04;1.10;90.10
45715;DHT22;31430;61.646;24.704;2023-02-28T06:49:32;1.10;89.50
45715;DHT22;31430;61.646;24.704;2023-02-28T06:51:57;1.00;86.10
45715;DHT22;31430;61.646;24.704;2023-02-28T06:54:23;1.00;87.70
45715;DHT22;31430;61.646;24.704;2023-02-28T06:56:49;1.00;85.90
45715;DHT22;31430;61.646;24.704;2023-02-28T06:59:15;0.90;83.40
45715;DHT22;31430;61.646;24.704;2023-02-28T07:01:40;0.90;85.10
45715;DHT22;31430;61.646;24.704;2023-02-28T07:04:06;0.90;85.80
45715;DHT22;31430;61.646;24.704;2023-02-28T07:06:32;0.80;87.70
45715;DHT22;31430;61.646;24.704;2023-02-28T07:08:57;0.80;86.80
45715;DHT22;31430;61.646;24.704;2023-02-28T07:11:25;0.80;86.50
45715;DHT22;31430;61.646;24.704;2023-02-28T07:13:53;0.80;87.60
45715;DHT22;31430;61.646;24.704;2023-02-28T07:16:19;0.90;86.60
45715;DHT22;31430;61.646;24.704;2023-02-28T07:18:44;0.90;86.20
45715;DHT22;31430;61.646;24.704;2023-02-28T07:21:10;0.80;87.00
45715;DHT22;31430;61.646;24.704;2023-02-28T07:23:36;0.90;87.60
45715;DHT22;31430;61.646;24.704;2023-02-28T07:26:10;0.80;87.60
45715;DHT22;31430;61.646;24.704;2023-02-28T07:28:36;0.70;90.60
45715;DHT22;31430;61.646;24.704;2023-02-28T07:31:07;0.70;90.30
45715;DHT22;31430;61.646;24.704;2023-02-28T07:33:33;0.60;91.30
45715;DHT22;31430;61.646;24.704;2023-02-28T07:36:04;0.60;92.70
45715;DHT22;31430;61.646;24.704;2023-02-28T07:38:31;0.60;93.00
45715;DHT22;31430;61.646;24.704;2023-02-28T07:40:58;0.50;93.80
45715;DHT22;31430;61.646;24.704;2023-02-28T07:43:24;0.50;92.90
45715;DHT22;31430;61.646;24.704;2023-02-28T07:45:49;0.60;92.30
45715;DHT22;31430;61.646;24.704;2023-02-28T07:48:15;0.70;90.60
45715;DHT22;31430;61.646;24.704;2023-02-28T07:50:41;0.80;90.40
45715;DHT22;31430;61.646;24.704;2023-02-28T07:53:06;0.80;91.20
45715;DHT22;31430;61.646;24.704;2023-02-28T07:55:32;0.90;90.40
45715;DHT22;31430;61.646;24.704;2023-02-28T07:57:58;1.00;89.70
45715;DHT22;31430;61.646;24.704;2023-02-28T08:00:24;1.20;90.40
45715;DHT22;31430;61.646;24.704;2023-02-28T08:02:49;1.30;89.00
45715;DHT22;31430;61.646;24.704;2023-02-28T08:05:15;1.20;88.10
45715;DHT22;31430;61.646;24.704;2023-02-28T08:07:41;1.20;88.90
45715;DHT22;31430;61.646;24.704;2023-02-28T08:10:07;1.00;88.10
45715;DHT22;31430;61.646;24.704;2023-02-28T08:12:35;1.00;89.90
45715;DHT22;31430;61.646;24.704;2023-02-28T08:15:01;0.80;88.70
45715;DHT22;31430;61.646;24.704;2023-02-28T08:17:26;0.70;90.10
45715;DHT22;31430;61.646;24.704;2023-02-28T08:19:52;0.80;90.00
45715;DHT22;31430;61.646;24.704;2023-02-28T08:22:18;0.90;90.00
45715;DHT22;31430;61.646;24.704;2023-02-28T08:24:43;0.80;89.90
45715;DHT22;31430;61.646;24.704;2023-02-28T08:27:09;0.80;88.00
45715;DHT22;31430;61.646;24.704;2023-02-28T08:29:36;0.70;90.00
45715;DHT22;31430;61.646;24.704;2023-02-28T08:32:02;0.80;88.70
45715;DHT22;31430;61.646;24.704;2023-02-28T08:34:28;0.80;88.50
45715;DHT22;31430;61.646;24.704;2023-02-28T08:36:53;0.80;87.40
45715;DHT22;31430;61.646;24.704;2023-02-28T08:39:19;0.60;87.60
45715;DHT22;31430;61.646;24.704;2023-02-28T08:41:45;0.50;90.10
45715;DHT22;31430;61.646;24.704;2023-02-28T08:44:11;0.50;90.30
45715;DHT22;31430;61.646;24.704;2023-02-28T08:46:36;0.60;88.70
45715;DHT22;31430;61.646;24.704;2023-02-28T08:49:03;0.70;86.30
45715;DHT22;31430;61.646;24.704;2023-02-28T08:51:28;0.70;86.00
45715;DHT22;31430;61.646;24.704;2023-02-28T08:53:57;0.70;84.60
45715;DHT22;31430;61.646;24.704;2023-02-28T08:56:23;0.80;82.60
45715;DHT22;31430;61.646;24.704;2023-02-28T08:58:50;0.80;83.40
45715;DHT22;31430;61.646;24.704;2023-02-28T09:01:22;0.90;83.40
45715;DHT22;31430;61.646;24.704;2023-02-28T09:03:49;0.80;83.90
45715;DHT22;31430;61.646;24.704;2023-02-28T09:06:17;0.90;82.10
45715;DHT22;31430;61.646;24.704;2023-02-28T09:08:44;1.10;82.30
45715;DHT22;31430;61.646;24.704;2023-02-28T09:11:10;1.20;81.50
45715;DHT22;31430;61.646;24.704;2023-02-28T09:13:36;1.30;79.80
45715;DHT22;31430;61.646;24.704;2023-02-28T09:16:04;1.50;80.40
45715;DHT22;31430;61.646;24.704;2023-02-28T09:18:30;1.40;80.80
45715;DHT22;31430;61.646;24.704;2023-02-28T09:20:56;1.40;79.60
45715;DHT22;31430;61.646;24.704;2023-02-28T09:23:21;1.50;81.40
45715;DHT22;31430;61.646;24.704;2023-02-28T09:25:48;1.70;80.20
45715;DHT22;31430;61.646;24.704;2023-02-28T09:28:16;1.70;79.30
45715;DHT22;31430;61.646;24.704;2023-02-28T09:30:46;1.80;80.50
45715;DHT22;31430;61.646;24.704;2023-02-28T09:33:12;1.60;78.20
45715;DHT22;31430;61.646;24.704;2023-02-28T09:35:38;1.50;79.20
45715;DHT22;31430;61.646;24.704;2023-02-28T09:38:04;1.80;80.00
45715;DHT22;31430;61.646;24.704;2023-02-28T09:40:30;2.10;78.40
45715;DHT22;31430;61.646;24.704;2023-02-28T09:42:57;2.30;73.20
45715;DHT22;31430;61.646;24.704;2023-02-28T09:45:36;1.80;72.20
45715;DHT22;31430;61.646;24.704;2023-02-28T09:48:13;1.70;71.20
45715;DHT22;31430;61.646;24.704;2023-02-28T09:50:48;1.80;70.70
45715;DHT22;31430;61.646;24.704;2023-02-28T09:55:58;1.70;70.40
45715;DHT22;31430;61.646;24.704;2023-02-28T10:01:08;1.90;70.90
45715;DHT22;31430;61.646;24.704;2023-02-28T10:06:26;1.70;71.40
45715;DHT22;31430;61.646;24.704;2023-02-28T10:09:14;1.50;74.30
45715;DHT22;31430;61.646;24.704;2023-02-28T10:11:42;1.30;72.60
45715;DHT22;31430;61.646;24.704;2023-02-28T10:14:22;1.20;74.60
45715;DHT22;31430;61.646;24.704;2023-02-28T10:17:11;1.10;74.20
45715;DHT22;31430;61.646;24.704;2023-02-28T10:20:00;1.10;76.00
45715;DHT22;31430;61.646;24.704;2023-02-28T10:22:32;1.30;74.60
45715;DHT22;31430;61.646;24.704;2023-02-28T10:25:00;1.20;76.90
45715;DHT22;31430;61.646;24.704;2023-02-28T10:27:31;1.40;76.90
45715;DHT22;31430;61.646;24.704;2023-02-28T10:30:02;1.60;75.80
45715;DHT22;31430;61.646;24.704;2023-02-28T10:32:31;1.60;75.80
45715;DHT22;31430;61.646;24.704;2023-02-28T10:35:10;1.50;75.40
45715;DHT22;31430;61.646;24.704;2023-02-28T10:37:41;1.50;78.00
45715;DHT22;31430;61.646;24.704;2023-02-28T10:40:32;1.70;76.40
45715;DHT22;31430;61.646;24.704;2023-02-28T10:43:24;1.60;76.00
45715;DHT22;31430;61.646;24.704;2023-02-28T10:50:55;1.20;76.50
45715;DHT22;31430;61.646;24.704;2023-02-28T10:58:42;1.30;75.20
45715;DHT22;31430;61.646;24.704;2023-02-28T11:04:02;1.50;74.30
45715;DHT22;31430;61.646;24.704;2023-02-28T11:06:33;1.60;74.50
45715;DHT22;31430;61.646;24.704;2023-02-28T11:09:22;1.70;71.60
45715;DHT22;31430;61.646;24.704;2023-02-28T11:11:49;1.60;71.20
45715;DHT22;31430;61.646;24.704;2023-02-28T11:14:26;1.60;71.60
45715;DHT22;31430;61.646;24.704;2023-02-28T11:16:53;1.50;70.00
45715;DHT22;31430;61.646;24.704;2023-02-28T11:19:29;1.40;70.50
45715;DHT22;31430;61.646;24.704;2023-02-28T11:22:01;1.40;68.40
45715;DHT22;31430;61.646;24.704;2023-02-28T11:24:35;1.30;67.70
45715;DHT22;31430;61.646;24.704;2023-02-28T11:27:02;1.30;68.60
45715;DHT22;31430;61.646;24.704;2023-02-28T11:29:32;1.50;68.80
45715;DHT22;31430;61.646;24.704;2023-02-28T11:34:27;1.60;65.30
45715;DHT22;31430;61.646;24.704;2023-02-28T11:36:55;1.50;67.40
45715;DHT22;31430;61.646;24.704;2023-02-28T11:39:22;1.50;66.20
45715;DHT22;31430;61.646;24.704;2023-02-28T11:53:01;1.80;61.80
45715;DHT22;31430;61.646;24.704;2023-02-28T11:55:40;1.70;64.80
45715;DHT22;31430;61.646;24.704;2023-02-28T12:06:41;1.50;62.60
45715;DHT22;31430;61.646;24.704;2023-02-28T12:22:37;1.50;58.80
45715;DHT22;31430;61.646;24.704;2023-02-28T12:25:21;1.50;60.60
45715;DHT22;31430;61.646;24.704;2023-02-28T12:27:48;1.50;62.30
45715;DHT22;31430;61.646;24.704;2023-02-28T12:30:30;1.50;62.40
45715;DHT22;31430;61.646;24.704;2023-02-28T12:33:32;1.50;59.60
45715;DHT22;31430;61.646;24.704;2023-02-28T12:36:05;1.50;60.40
45715;DHT22;31430;61.646;24.704;2023-02-28T12:38:39;1.50;58.60
45715;DHT22;31430;61.646;24.704;2023-02-28T12:41:29;1.50;60.00
45715;DHT22;31430;61.646;24.704;2023-02-28T12:44:15;1.30;62.00
45715;DHT22;31430;61.646;24.704;2023-02-28T12:46:47;1.60;61.10
45715;DHT22;31430;61.646;24.704;2023-02-28T12:49:44;1.70;60.00
45715;DHT22;31430;61.646;24.704;2023-02-28T12:52:11;1.70;60.70
45715;DHT22;31430;61.646;24.704;2023-02-28T12:59:56;1.50;61.60
45715;DHT22;31430;61.646;24.704;2023-02-28T13:09:06;1.40;63.60
45715;DHT22;31430;61.646;24.704;2023-02-28T13:11:41;1.50;63.50
45715;DHT22;31430;61.646;24.704;2023-02-28T13:17:03;1.60;66.00
45715;DHT22;31430;61.646;24.704;2023-02-28T13:22:20;1.70;65.90
45715;DHT22;31430;61.646;24.704;2023-02-28T13:25:01;1.50;68.40
45715;DHT22;31430;61.646;24.704;2023-02-28T13:27:38;1.50;67.00
45715;DHT22;31430;61.646;24.704;2023-02-28T13:35:50;1.60;67.50
45715;DHT22;31430;61.646;24.704;2023-02-28T13:38:37;1.70;67.40
45715;DHT22;31430;61.646;24.704;2023-02-28T13:41:42;1.60;69.00
45715;DHT22;31430;61.646;24.704;2023-02-28T13:44:22;1.60;68.10
45715;DHT22;31430;61.646;24.704;2023-02-28T13:51:47;1.30;69.30
45715;DHT22;31430;61.646;24.704;2023-02-28T14:02:40;1.40;68.40
45715;DHT22;31430;61.646;24.704;2023-02-28T14:05:20;1.30;68.70
45715;DHT22;31430;61.646;24.704;2023-02-28T14:07:56;1.10;70.70
45715;DHT22;31430;61.646;24.704;2023-02-28T14:10:35;1.10;70.40
45715;DHT22;31430;61.646;24.704;2023-02-28T14:17:55;0.80;71.80
45715;DHT22;31430;61.646;24.704;2023-02-28T14:20:25;0.70;72.80
45715;DHT22;31430;61.646;24.704;2023-02-28T14:25:35;0.60;73.10
45715;DHT22;31430;61.646;24.704;2023-02-28T14:31:25;0.70;73.70
45715;DHT22;31430;61.646;24.704;2023-02-28T14:36:41;0.60;74.10
45715;DHT22;31430;61.646;24.704;2023-02-28T14:39:13;0.60;74.60
45715;DHT22;31430;61.646;24.704;2023-02-28T14:41:41;0.60;75.20
45715;DHT22;31430;61.646;24.704;2023-02-28T14:44:17;0.60;74.20
45715;DHT22;31430;61.646;24.704;2023-02-28T14:46:44;0.50;75.50
45715;DHT22;31430;61.646;24.704;2023-02-28T14:51:44;0.50;76.40
45715;DHT22;31430;61.646;24.704;2023-02-28T14:54:16;0.50;75.70
45715;DHT22;31430;61.646;24.704;2023-02-28T14:56:42;0.40;76.40
45715;DHT22;31430;61.646;24.704;2023-02-28T15:02:17;0.40;77.00
45715;DHT22;31430;61.646;24.704;2023-02-28T15:04:43;0.30;79.10
45715;DHT22;31430;61.646;24.704;2023-02-28T15:07:17;0.30;76.90
45715;DHT22;31430;61.646;24.704;2023-02-28T15:09:42;0.30;77.00
45715;DHT22;31430;61.646;24.704;2023-02-28T15:12:13;0.20;77.30
45715;DHT22;31430;61.646;24.704;2023-02-28T15:14:42;0.20;76.90
45715;DHT22;31430;61.646;24.704;2023-02-28T15:17:15;0.20;78.00
45715;DHT22;31430;61.646;24.704;2023-02-28T15:19:48;0.00;78.60
45715;DHT22;31430;61.646;24.704;2023-02-28T15:22:25;-0.10;79.60
45715;DHT22;31430;61.646;24.704;2023-02-28T15:24:54;-0.20;80.10
45715;DHT22;31430;61.646;24.704;2023-02-28T15:27:25;-0.30;80.00
45715;DHT22;31430;61.646;24.704;2023-02-28T15:29:59;-0.30;79.90
45715;DHT22;31430;61.646;24.704;2023-02-28T15:32:31;-0.20;79.30
45715;DHT22;31430;61.646;24.704;2023-02-28T15:34:58;-0.20;78.90
45715;DHT22;31430;61.646;24.704;2023-02-28T15:40:28;-0.30;80.60
45715;DHT22;31430;61.646;24.704;2023-02-28T15:45:39;-0.60;82.10
45715;DHT22;31430;61.646;24.704;2023-02-28T15:48:51;-0.60;82.50
45715;DHT22;31430;61.646;24.704;2023-02-28T15:53:33;-0.90;83.90
45715;DHT22;31430;61.646;24.704;2023-02-28T15:56:21;-1.10;84.50
45715;DHT22;31430;61.646;24.704;2023-02-28T15:58:47;-1.10;84.70
45715;DHT22;31430;61.646;24.704;2023-02-28T16:01:20;-1.20;85.90
45715;DHT22;31430;61.646;24.704;2023-02-28T16:03:50;-1.30;85.20
45715;DHT22;31430;61.646;24.704;2023-02-28T16:06:23;-1.40;85.80
45715;DHT22;31430;61.646;24.704;2023-02-28T16:08:50;-1.40;85.70
45715;DHT22;31430;61.646;24.704;2023-02-28T16:11:17;-1.60;87.40
45715;DHT22;31430;61.646;24.704;2023-02-28T16:13:42;-1.60;86.70
45715;DHT22;31430;61.646;24.704;2023-02-28T16:16:08;-1.60;87.60
45715;DHT22;31430;61.646;24.704;2023-02-28T16:18:34;-1.50;87.40
45715;DHT22;31430;61.646;24.704;2023-02-28T16:20:59;-1.50;87.50
45715;DHT22;31430;61.646;24.704;2023-02-28T16:23:25;-1.50;88.70
45715;DHT22;31430;61.646;24.704;2023-02-28T16:25:50;-1.50;88.50
45715;DHT22;31430;61.646;24.704;2023-02-28T16:28:19;-1.50;86.90
45715;DHT22;31430;61.646;24.704;2023-02-28T16:30:47;-1.50;85.90
45715;DHT22;31430;61.646;24.704;2023-02-28T16:33:13;-1.40;84.90
45715;DHT22;31430;61.646;24.704;2023-02-28T16:35:38;-1.40;84.00
45715;DHT22;31430;61.646;24.704;2023-02-28T16:38:04;-1.40;84.70
45715;DHT22;31430;61.646;24.704;2023-02-28T16:40:34;-1.20;84.80
45715;DHT22;31430;61.646;24.704;2023-02-28T16:43:00;-1.20;83.90
45715;DHT22;31430;61.646;24.704;2023-02-28T16:45:30;-1.20;84.10
45715;DHT22;31430;61.646;24.704;2023-02-28T16:47:55;-1.20;83.50
45715;DHT22;31430;61.646;24.704;2023-02-28T16:50:29;-1.20;82.50
45715;DHT22;31430;61.646;24.704;2023-02-28T16:52:56;-1.20;82.30
45715;DHT22;31430;61.646;24.704;2023-02-28T16:55:22;-1.20;82.30
45715;DHT22;31430;61.646;24.704;2023-02-28T16:57:57;-1.10;82.20
45715;DHT22;31430;61.646;24.704;2023-02-28T17:00:24;-1.20;82.00
45715;DHT22;31430;61.646;24.704;2023-02-28T17:02:50;-1.10;82.00
45715;DHT22;31430;61.646;24.704;2023-02-28T17:05:16;-1.00;81.20
45715;DHT22;31430;61.646;24.704;2023-02-28T17:07:43;-1.00;80.70
45715;DHT22;31430;61.646;24.704;2023-02-28T17:12:42;-1.30;82.60
45715;DHT22;31430;61.646;24.704;2023-02-28T17:15:10;-1.30;81.40
45715;DHT22;31430;61.646;24.704;2023-02-28T17:17:37;-1.30;80.80
45715;DHT22;31430;61.646;24.704;2023-02-28T17:20:03;-1.50;82.00
45715;DHT22;31430;61.646;24.704;2023-02-28T17:22:30;-1.70;82.30
45715;DHT22;31430;61.646;24.704;2023-02-28T17:24:55;-1.80;82.80
45715;DHT22;31430;61.646;24.704;2023-02-28T17:27:21;-1.90;83.00
45715;DHT22;31430;61.646;24.704;2023-02-28T17:29:47;-2.00;83.80
45715;DHT22;31430;61.646;24.704;2023-02-28T17:32:12;-2.10;83.60
45715;DHT22;31430;61.646;24.704;2023-02-28T17:34:38;-2.20;83.70
45715;DHT22;31430;61.646;24.704;2023-02-28T17:37:04;-2.20;84.10
45715;DHT22;31430;61.646;24.704;2023-02-28T17:39:30;-2.30;84.30
45715;DHT22;31430;61.646;24.704;2023-02-28T17:41:56;-2.30;84.20
45715;DHT22;31430;61.646;24.704;2023-02-28T17:44:23;-2.20;84.40
45715;DHT22;31430;61.646;24.704;2023-02-28T17:46:49;-2.20;84.60
45715;DHT22;31430;61.646;24.704;2023-02-28T17:49:16;-2.30;84.20
45715;DHT22;31430;61.646;24.704;2023-02-28T17:51:42;-2.30;85.00
45715;DHT22;31430;61.646;24.704;2023-02-28T17:54:08;-2.30;84.30
45715;DHT22;31430;61.646;24.704;2023-02-28T17:56:34;-2.40;84.00
45715;DHT22;31430;61.646;24.704;2023-02-28T17:59:00;-2.40;84.00
45715;DHT22;31430;61.646;24.704;2023-02-28T18:01:26;-2.40;83.70
45715;DHT22;31430;61.646;24.704;2023-02-28T18:03:52;-2.40;84.00
45715;DHT22;31430;61.646;24.704;2023-02-28T18:08:51;-2.50;85.70
45715;DHT22;31430;61.646;24.704;2023-02-28T18:11:18;-2.40;84.80
45715;DHT22;31430;61.646;24.704;2023-02-28T18:13:50;-2.30;85.90
45715;DHT22;31430;61.646;24.704;2023-02-28T18:16:18;-2.20;84.70
45715;DHT22;31430;61.646;24.704;2023-02-28T18:18:44;-2.10;83.30
45715;DHT22;31430;61.646;24.704;2023-02-28T18:21:12;-2.00;84.30
45715;DHT22;31430;61.646;24.704;2023-02-28T18:23:38;-2.10;84.10
45715;DHT22;31430;61.646;24.704;2023-02-28T18:26:13;-2.60;86.60
45715;DHT22;31430;61.646;24.704;2023-02-28T18:28:39;-2.70;90.50
45715;DHT22;31430;61.646;24.704;2023-02-28T18:31:11;-2.80;89.60
45715;DHT22;31430;61.646;24.704;2023-02-28T18:33:37;-2.70;90.10
45715;DHT22;31430;61.646;24.704;2023-02-28T18:36:03;-2.70;89.60
45715;DHT22;31430;61.646;24.704;2023-02-28T18:38:32;-2.80;90.40
45715;DHT22;31430;61.646;24.704;2023-02-28T18:41:00;-2.90;90.50